createdAt,value
2023-03-01T00:06:23.084Z,103.00
2023-03-01T00:16:32.584Z,93.10
2023-03-01T00:26:40.619Z,85.60
2023-03-01T00:36:49.035Z,95.40
2023-03-01T00:46:56.226Z,81.50
2023-03-01T00:57:03.598Z,77.60
2023-03-01T01:07:10.778Z,69.50
2023-03-01T01:17:17.778Z,69.10
2023-03-01T01:27:25.148Z,67.90
2023-03-01T01:37:32.413Z,67.30
2023-03-01T01:47:39.801Z,67.40
2023-03-01T01:57:51.119Z,69.40
2023-03-01T02:07:59.288Z,65.00
2023-03-01T02:18:08.678Z,65.90
2023-03-01T02:38:21.526Z,65.20
2023-03-01T02:48:28.607Z,70.20
2023-03-01T02:58:35.054Z,71.40
2023-03-01T03:08:42.104Z,75.90
2023-03-01T03:18:49.483Z,75.40
2023-03-01T03:28:56.407Z,73.60
2023-03-01T03:49:10.138Z,74.00
2023-03-01T03:59:17.483Z,67.00
2023-03-01T04:09:24.864Z,64.30
2023-03-01T04:19:37.310Z,68.30
2023-03-01T04:29:44.501Z,66.50
2023-03-01T04:39:52.093Z,70.90
2023-03-01T04:49:59.116Z,68.90
2023-03-01T05:00:09.169Z,72.00
2023-03-01T05:10:16.438Z,73.50
2023-03-01T05:20:25.206Z,76.50
2023-03-01T05:30:31.022Z,75.80
2023-03-01T05:40:38.674Z,74.20
2023-03-01T05:50:45.908Z,81.10
2023-03-01T06:00:55.179Z,77.40
2023-03-01T06:11:01.949Z,88.20
2023-03-01T06:21:10.406Z,85.00
2023-03-01T06:31:17.622Z,87.50
2023-03-01T06:41:24.916Z,118.50
2023-03-01T06:51:32.276Z,147.20
2023-03-01T07:11:46.390Z,143.30
2023-03-01T07:21:52.627Z,154.40
2023-03-01T07:31:59.675Z,117.80
2023-03-01T07:42:05.980Z,98.30
2023-03-01T07:52:11.736Z,79.90
2023-03-01T08:02:19.086Z,67.40
2023-03-01T08:12:26.169Z,56.90
2023-03-01T08:22:33.532Z,54.80
2023-03-01T08:32:38.808Z,38.50
2023-03-01T08:42:46.323Z,46.30
2023-03-01T08:52:53.473Z,30.90
2023-03-01T09:02:59.361Z,31.40
2023-03-01T09:13:07.116Z,28.70
2023-03-01T09:23:14.598Z,30.10
2023-03-01T09:33:21.993Z,27.00
2023-03-01T09:43:28.670Z,31.70
2023-03-01T09:53:36.283Z,30.00
2023-03-01T10:03:41.645Z,29.90
2023-03-01T10:13:46.996Z,27.40
2023-03-01T10:23:54.896Z,21.10
2023-03-01T10:34:02.770Z,27.20
2023-03-01T10:44:42.919Z,28.30
2023-03-01T10:54:53.700Z,29.70
2023-03-01T11:05:01.664Z,27.60
2023-03-01T11:15:22.136Z,30.20
2023-03-01T11:25:29.722Z,30.30
2023-03-01T11:35:44.411Z,33.90
2023-03-01T11:45:53.933Z,29.30
2023-03-01T11:56:06.000Z,26.30
2023-03-01T12:06:41.824Z,24.10
2023-03-01T12:16:56.775Z,26.60
2023-03-01T12:27:20.782Z,24.70
2023-03-01T12:37:30.820Z,25.20
2023-03-01T12:47:42.712Z,24.80
2023-03-01T12:57:48.674Z,24.70
2023-03-01T13:07:54.377Z,21.00
2023-03-01T13:18:03.292Z,20.50
2023-03-01T13:28:44.478Z,20.40
2023-03-01T13:38:52.087Z,21.90
2023-03-01T13:49:00.761Z,18.80
2023-03-01T13:59:15.499Z,23.60
2023-03-01T14:09:26.631Z,23.70
2023-03-01T14:19:35.813Z,22.90
2023-03-01T14:29:44.146Z,20.60
2023-03-01T14:39:50.966Z,21.90
2023-03-01T14:49:56.488Z,20.60
2023-03-01T15:00:08.577Z,17.20
2023-03-01T15:10:16.986Z,15.00
2023-03-01T15:20:26.971Z,13.00
2023-03-01T15:30:39.097Z,13.50
2023-03-01T15:40:53.947Z,12.60
2023-03-01T15:51:01.905Z,12.00
2023-03-01T16:01:14.017Z,14.00
2023-03-01T16:11:22.503Z,14.30
2023-03-01T16:21:30.185Z,14.80
2023-03-01T16:31:37.905Z,17.20
2023-03-01T16:41:45.648Z,23.10
2023-03-01T16:51:52.832Z,25.40
2023-03-01T17:02:00.323Z,27.60
2023-03-01T17:12:08.345Z,27.70
2023-03-01T17:22:16.446Z,27.60
2023-03-01T17:32:22.796Z,30.20
2023-03-01T17:42:30.767Z,39.10
2023-03-01T17:52:37.345Z,49.50
2023-03-01T18:02:45.156Z,62.10
2023-03-01T18:12:53.278Z,66.20
2023-03-01T18:23:00.701Z,63.10
2023-03-01T18:33:07.991Z,71.20
2023-03-01T18:43:15.627Z,71.50
2023-03-01T18:53:22.877Z,75.80
2023-03-01T19:03:30.970Z,73.10
2023-03-01T19:13:38.026Z,68.40
2023-03-01T19:23:45.840Z,69.30
2023-03-01T19:34:05.416Z,69.30
2023-03-01T19:44:17.672Z,83.30
2023-03-01T19:54:24.910Z,72.80
2023-03-01T20:04:32.486Z,74.40
2023-03-01T20:14:40.732Z,64.60
2023-03-01T20:34:55.298Z,82.80
2023-03-01T20:45:03.138Z,78.60
2023-03-01T20:55:12.310Z,73.80
2023-03-01T21:05:17.704Z,74.90
2023-03-01T21:15:29.468Z,77.30
2023-03-01T21:25:37.248Z,76.90
2023-03-01T21:35:44.356Z,75.30
2023-03-01T21:45:50.648Z,76.00
2023-03-01T21:55:57.302Z,75.50
2023-03-01T22:06:04.936Z,88.00
2023-03-01T22:16:12.939Z,85.00
2023-03-01T22:26:29.060Z,84.60
2023-03-01T22:36:37.294Z,84.70
2023-03-01T22:46:45.938Z,84.60
2023-03-01T22:56:53.088Z,82.10
2023-03-01T23:07:00.390Z,87.50
2023-03-01T23:17:08.752Z,90.90
2023-03-01T23:27:16.721Z,85.80
2023-03-01T23:37:24.506Z,82.90
2023-03-01T23:47:31.633Z,83.20
2023-03-01T23:57:38.642Z,79.50
